»·PEaware :: AWE1082 KLAS-KLAX

AWE1082 :: KLAS-KLAX

FLIGHT INFORMATION

Flight Status: Arrived
Operator:
US Airways
More flights by this operator :: More flights under this callsign
Pilot: Bob S. (40)
Aircraft: Unknown
(DHC8)
More flights by this aircraft type
Origin: KLAS McCarran Intl
United States
Destination: KLAX Los Angeles Intl
United States
More flights between these airports :: More routes between these airports
Route: +MCCRN3 HEC V12 PMD KIMMO2
File this flight plan on PilotEdge
Remarks:
Altitude:
(Current/Filed)
22,000ft
Speed:
(Current/Filed)
280kts
Departed: 17-Apr-11 05:09 PM
Arrived: 17-Apr-11 06:21 PM
Distance/Time
Traveled:
205nm/1:12
Distance/Time
To Go:
Arrived

Flight Plot

Page will automatically refresh every two minutes.


Map Options




Map Legend


Flown Route
Filed Route
Departure Airport
Arrival Airport
Navaid (VOR, NDB)
Fix

Horizontal Profiles

Position Reports

Time Latitude Longitude Heading Altitude Ground
Speed
17-Apr-11 16:40 36.084396 -115.152200 103 2148ft 0kts
17-Apr-11 16:41 36.084396 -115.152200 103 2148ft 0kts
17-Apr-11 16:42 36.084396 -115.152200 103 2148ft 0kts
17-Apr-11 16:43 36.084396 -115.152200 103 2148ft 0kts
17-Apr-11 16:44 36.084396 -115.152200 103 2148ft 0kts
17-Apr-11 16:45 36.084396 -115.152200 103 2148ft 0kts
17-Apr-11 16:46 36.084396 -115.152200 103 2148ft 0kts
17-Apr-11 16:47 36.084396 -115.152200 103 2148ft 0kts
17-Apr-11 16:48 36.084396 -115.152200 103 2148ft 0kts
17-Apr-11 16:49 36.084396 -115.152200 103 2148ft 0kts
17-Apr-11 16:50 36.084396 -115.152200 103 2148ft 0kts
17-Apr-11 16:51 36.084396 -115.152200 103 2148ft 0kts
17-Apr-11 16:52 36.084396 -115.152200 103 2148ft 0kts
17-Apr-11 16:53 36.084396 -115.152200 103 2148ft 0kts
17-Apr-11 16:54 36.084396 -115.152200 103 2148ft 0kts
17-Apr-11 16:55 36.084396 -115.152200 103 2148ft 0kts
17-Apr-11 16:56 36.084396 -115.152200 103 2148ft 0kts
17-Apr-11 16:57 36.084396 -115.152200 103 2148ft 0kts
17-Apr-11 16:58 36.084396 -115.152200 103 2148ft 0kts
17-Apr-11 17:00 36.084480 -115.152592 117 2148ft 0kts
17-Apr-11 17:01 36.083635 -115.154719 247 2148ft 0kts
17-Apr-11 17:02 36.086391 -115.157779 334 2148ft 20kts
17-Apr-11 17:03 36.092984 -115.154526 25 2148ft 29kts
17-Apr-11 17:04 36.098027 -115.152466 294 2148ft 0kts
17-Apr-11 17:05 36.098086 -115.152633 290 2148ft 7kts
17-Apr-11 17:06 36.096527 -115.154721 204 2148ft 10kts
17-Apr-11 17:07 36.080111 -115.163791 207 2756ft 106kts
17-Apr-11 17:08 36.054519 -115.183815 225 4445ft 112kts
17-Apr-11 17:08 36.041028 -115.210895 238 5764ft 125kts
17-Apr-11 17:09 36.021547 -115.248618 238 7487ft 134kts
17-Apr-11 17:11 35.991890 -115.279997 186 8573ft 184kts
17-Apr-11 17:12 35.942988 -115.276884 184 10226ft 176kts
17-Apr-11 17:13 35.891425 -115.273248 184 11012ft 207kts
17-Apr-11 17:14 35.826710 -115.270633 184 11269ft 245kts
17-Apr-11 17:15 35.759185 -115.268033 189 12362ft 238kts
17-Apr-11 17:16 35.698301 -115.291311 188 13440ft 238kts
17-Apr-11 17:17 35.638501 -115.310550 225 14514ft 221kts
17-Apr-11 17:18 35.593709 -115.361429 227 15609ft 219kts
17-Apr-11 17:19 35.558140 -115.401782 226 16572ft 214kts
17-Apr-11 17:20 35.509124 -115.456759 227 18396ft 198kts
17-Apr-11 17:21 35.475737 -115.494279 228 19586ft 195kts
17-Apr-11 17:22 35.435915 -115.538890 225 20964ft 193kts
17-Apr-11 17:23 35.396816 -115.584279 230 21996ft 204kts
17-Apr-11 17:24 35.355233 -115.638086 229 22002ft 234kts
17-Apr-11 17:25 35.309861 -115.697500 229 21999ft 244kts
17-Apr-11 17:26 35.263426 -115.758285 230 21997ft 243kts
17-Apr-11 17:27 35.218982 -115.820705 234 21995ft 242kts
17-Apr-11 17:28 35.177781 -115.887847 236 21995ft 251kts
17-Apr-11 17:29 35.136738 -115.957050 236 21994ft 253kts
17-Apr-11 17:30 35.095510 -116.026491 236 21993ft 253kts
17-Apr-11 17:31 35.055911 -116.089309 233 21992ft 253kts
17-Apr-11 17:32 35.012236 -116.157446 233 21988ft 253kts
17-Apr-11 17:33 34.968856 -116.224571 233 21809ft 256kts
17-Apr-11 17:34 34.926132 -116.292193 231 21808ft 254kts
17-Apr-11 17:35 34.881814 -116.359098 243 21800ft 252kts
17-Apr-11 17:36 34.864151 -116.441060 257 21807ft 252kts
17-Apr-11 17:37 34.852065 -116.524051 258 21808ft 241kts
17-Apr-11 17:38 34.841207 -116.601492 257 21819ft 236kts
17-Apr-11 17:39 34.830244 -116.680867 257 21819ft 237kts
17-Apr-11 17:40 34.819271 -116.760328 258 21819ft 238kts
17-Apr-11 17:41 34.808314 -116.839570 257 21817ft 239kts
17-Apr-11 17:42 34.797103 -116.919955 257 21817ft 241kts
17-Apr-11 17:43 34.785841 -117.000456 258 21816ft 241kts
17-Apr-11 17:44 34.776276 -117.068491 257 21815ft 241kts
17-Apr-11 17:45 34.764968 -117.148831 257 21814ft 241kts
17-Apr-11 17:46 34.753513 -117.229460 258 21813ft 241kts
17-Apr-11 17:47 34.741947 -117.310492 258 21724ft 242kts
17-Apr-11 17:48 34.720709 -117.458404 258 21722ft 241kts
17-Apr-11 17:49 34.709106 -117.538657 259 21722ft 242kts
17-Apr-11 17:52 34.684118 -117.708456 258 19222ft 266kts
17-Apr-11 17:53 34.671711 -117.792968 259 17670ft 244kts
17-Apr-11 17:54 34.662176 -117.857598 258 16416ft 235kts
17-Apr-11 17:55 34.650657 -117.935442 259 14882ft 236kts
17-Apr-11 17:56 34.638712 -118.015840 259 13374ft 246kts
17-Apr-11 17:57 34.616313 -118.088689 235 12889ft 218kts
17-Apr-11 17:58 34.580286 -118.146197 236 12897ft 218kts
17-Apr-11 18:00 34.502638 -118.270423 235 10515ft 245kts
17-Apr-11 18:01 34.479696 -118.307026 235 9059ft 218kts
17-Apr-11 18:02 34.449078 -118.355674 236 7824ft 123kts
17-Apr-11 18:03 34.425292 -118.393692 235 7919ft 167kts
17-Apr-11 18:04 34.383004 -118.402200 161 7896ft 198kts
17-Apr-11 18:05 34.332979 -118.372708 161 7910ft 207kts
17-Apr-11 18:06 34.286386 -118.345530 160 7895ft 211kts
17-Apr-11 18:07 34.231737 -118.313814 160 7392ft 227kts
17-Apr-11 18:08 34.174572 -118.280608 159 6620ft 229kts
17-Apr-11 18:09 34.139762 -118.217662 109 5154ft 233kts
17-Apr-11 18:10 34.119820 -118.151954 152 4866ft 182kts
17-Apr-11 18:11 34.074832 -118.138514 175 4889ft 160kts
17-Apr-11 18:12 34.026601 -118.131745 211 3643ft 196kts
17-Apr-11 18:13 33.989555 -118.172097 223 2392ft 154kts
17-Apr-11 18:14 33.974477 -118.214392 254 2406ft 145kts
17-Apr-11 18:15 33.966852 -118.265167 259 2338ft 162kts
17-Apr-11 18:16 33.961859 -118.309464 259 1662ft 129kts
17-Apr-11 18:17 33.957813 -118.347887 259 1035ft 129kts
17-Apr-11 18:18 33.953933 -118.385244 260 439ft 97kts
17-Apr-11 18:19 33.950728 -118.414825 255 133ft 34kts
17-Apr-11 18:20 33.947224 -118.422696 231 133ft 19kts
17-Apr-11 18:22 33.946918 -118.408294 142 133ft 0kts
17-Apr-11 18:23 33.946918 -118.408294 142 133ft 0kts

Navigation Log

Ident Type
Flight plan parsing failed, navigation log unavailable